sensor_id;sensor_type;location;lat;lon;timestamp;P1;durP1;ratioP1;P2;durP2;ratioP2
66702;SDS011;60933;46.398;-63.798;2023-05-02T00:00:44;3.28;;;1.05;;
66702;SDS011;60933;46.398;-63.798;2023-05-02T00:03:11;5.88;;;1.08;;
66702;SDS011;60933;46.398;-63.798;2023-05-02T00:05:37;3.30;;;1.23;;
66702;SDS011;60933;46.398;-63.798;2023-05-02T00:08:04;4.85;;;1.00;;
66702;SDS011;60933;46.398;-63.798;2023-05-02T00:10:31;5.65;;;1.05;;
66702;SDS011;60933;46.398;-63.798;2023-05-02T00:12:57;3.15;;;0.80;;
66702;SDS011;60933;46.398;-63.798;2023-05-02T00:15:23;7.40;;;1.13;;
66702;SDS011;60933;46.398;-63.798;2023-05-02T00:17:51;8.25;;;0.90;;
66702;SDS011;60933;46.398;-63.798;2023-05-02T00:20:18;5.32;;;1.10;;
66702;SDS011;60933;46.398;-63.798;2023-05-02T00:22:44;3.42;;;0.77;;
66702;SDS011;60933;46.398;-63.798;2023-05-02T00:25:10;6.20;;;1.00;;
66702;SDS011;60933;46.398;-63.798;2023-05-02T00:27:40;5.15;;;0.82;;
66702;SDS011;60933;46.398;-63.798;2023-05-02T00:30:07;5.28;;;0.98;;
66702;SDS011;60933;46.398;-63.798;2023-05-02T00:32:34;6.47;;;0.70;;
66702;SDS011;60933;46.398;-63.798;2023-05-02T00:35:00;6.00;;;1.40;;
66702;SDS011;60933;46.398;-63.798;2023-05-02T00:37:27;3.53;;;0.65;;
66702;SDS011;60933;46.398;-63.798;2023-05-02T00:39:53;3.92;;;0.98;;
66702;SDS011;60933;46.398;-63.798;2023-05-02T00:42:19;3.65;;;0.80;;
66702;SDS011;60933;46.398;-63.798;2023-05-02T00:44:46;3.97;;;1.00;;
66702;SDS011;60933;46.398;-63.798;2023-05-02T00:47:13;2.95;;;0.70;;
66702;SDS011;60933;46.398;-63.798;2023-05-02T00:49:40;5.72;;;0.85;;
66702;SDS011;60933;46.398;-63.798;2023-05-02T00:52:07;4.63;;;1.30;;
66702;SDS011;60933;46.398;-63.798;2023-05-02T00:54:34;3.08;;;1.83;;
66702;SDS011;60933;46.398;-63.798;2023-05-02T00:57:03;5.55;;;1.00;;
66702;SDS011;60933;46.398;-63.798;2023-05-02T00:59:29;5.53;;;0.73;;
66702;SDS011;60933;46.398;-63.798;2023-05-02T01:02:10;5.80;;;1.08;;
66702;SDS011;60933;46.398;-63.798;2023-05-02T01:15:47;1.75;;;0.82;;
66702;SDS011;60933;46.398;-63.798;2023-05-02T01:18:19;3.55;;;0.77;;
66702;SDS011;60933;46.398;-63.798;2023-05-02T01:20:50;2.75;;;0.45;;
66702;SDS011;60933;46.398;-63.798;2023-05-02T01:23:24;2.85;;;0.70;;
66702;SDS011;60933;46.398;-63.798;2023-05-02T01:26:16;2.13;;;0.60;;
66702;SDS011;60933;46.398;-63.798;2023-05-02T01:29:01;3.10;;;0.70;;
66702;SDS011;60933;46.398;-63.798;2023-05-02T01:31:37;2.75;;;0.65;;
66702;SDS011;60933;46.398;-63.798;2023-05-02T01:34:07;3.42;;;0.47;;
66702;SDS011;60933;46.398;-63.798;2023-05-02T01:36:35;3.40;;;0.50;;
66702;SDS011;60933;46.398;-63.798;2023-05-02T01:39:10;3.00;;;0.50;;
66702;SDS011;60933;46.398;-63.798;2023-05-02T01:41:40;3.47;;;0.88;;
66702;SDS011;60933;46.398;-63.798;2023-05-02T01:44:07;2.75;;;0.73;;
66702;SDS011;60933;46.398;-63.798;2023-05-02T01:46:37;1.80;;;0.50;;
66702;SDS011;60933;46.398;-63.798;2023-05-02T01:49:07;2.42;;;0.35;;
66702;SDS011;60933;46.398;-63.798;2023-05-02T01:51:34;3.55;;;0.52;;
66702;SDS011;60933;46.398;-63.798;2023-05-02T01:54:06;4.13;;;0.60;;
66702;SDS011;60933;46.398;-63.798;2023-05-02T01:56:34;4.80;;;1.13;;
66702;SDS011;60933;46.398;-63.798;2023-05-02T01:59:07;2.03;;;0.50;;
66702;SDS011;60933;46.398;-63.798;2023-05-02T02:01:35;3.55;;;0.50;;
66702;SDS011;60933;46.398;-63.798;2023-05-02T02:04:04;4.97;;;0.50;;
66702;SDS011;60933;46.398;-63.798;2023-05-02T02:06:33;2.20;;;0.50;;
66702;SDS011;60933;46.398;-63.798;2023-05-02T02:08:59;2.20;;;0.65;;
66702;SDS011;60933;46.398;-63.798;2023-05-02T02:11:34;5.97;;;0.70;;
66702;SDS011;60933;46.398;-63.798;2023-05-02T02:14:15;4.25;;;0.68;;
66702;SDS011;60933;46.398;-63.798;2023-05-02T02:16:46;3.38;;;1.30;;
66702;SDS011;60933;46.398;-63.798;2023-05-02T02:19:14;1.55;;;0.47;;
66702;SDS011;60933;46.398;-63.798;2023-05-02T02:21:42;3.40;;;0.50;;
66702;SDS011;60933;46.398;-63.798;2023-05-02T02:24:11;3.65;;;0.60;;
66702;SDS011;60933;46.398;-63.798;2023-05-02T02:26:39;3.53;;;0.60;;
66702;SDS011;60933;46.398;-63.798;2023-05-02T02:29:05;1.38;;;0.30;;
66702;SDS011;60933;46.398;-63.798;2023-05-02T02:31:32;3.55;;;0.70;;
66702;SDS011;60933;46.398;-63.798;2023-05-02T02:34:00;3.70;;;0.68;;
66702;SDS011;60933;46.398;-63.798;2023-05-02T02:42:00;2.33;;;0.47;;
66702;SDS011;60933;46.398;-63.798;2023-05-02T02:44:42;5.03;;;0.98;;
66702;SDS011;60933;46.398;-63.798;2023-05-02T02:57:58;3.40;;;0.50;;
66702;SDS011;60933;46.398;-63.798;2023-05-02T03:00:28;2.03;;;0.70;;
66702;SDS011;60933;46.398;-63.798;2023-05-02T03:02:57;6.07;;;0.50;;
66702;SDS011;60933;46.398;-63.798;2023-05-02T03:05:31;4.03;;;1.10;;
66702;SDS011;60933;46.398;-63.798;2023-05-02T03:07:58;2.05;;;1.05;;
66702;SDS011;60933;46.398;-63.798;2023-05-02T03:10:25;2.03;;;0.43;;
66702;SDS011;60933;46.398;-63.798;2023-05-02T03:12:51;3.45;;;0.60;;
66702;SDS011;60933;46.398;-63.798;2023-05-02T03:18:17;0.93;;;0.47;;
66702;SDS011;60933;46.398;-63.798;2023-05-02T03:20:43;1.70;;;0.45;;
66702;SDS011;60933;46.398;-63.798;2023-05-02T03:23:10;3.45;;;0.80;;
66702;SDS011;60933;46.398;-63.798;2023-05-02T03:25:36;2.35;;;0.90;;
66702;SDS011;60933;46.398;-63.798;2023-05-02T03:28:03;1.80;;;0.52;;
66702;SDS011;60933;46.398;-63.798;2023-05-02T03:30:29;3.60;;;0.60;;
66702;SDS011;60933;46.398;-63.798;2023-05-02T03:32:55;3.72;;;0.55;;
66702;SDS011;60933;46.398;-63.798;2023-05-02T03:35:21;1.98;;;0.90;;
66702;SDS011;60933;46.398;-63.798;2023-05-02T03:37:47;2.67;;;0.70;;
66702;SDS011;60933;46.398;-63.798;2023-05-02T03:40:15;3.42;;;0.70;;
66702;SDS011;60933;46.398;-63.798;2023-05-02T03:42:43;3.03;;;0.77;;
66702;SDS011;60933;46.398;-63.798;2023-05-02T03:45:10;3.03;;;0.63;;
66702;SDS011;60933;46.398;-63.798;2023-05-02T03:47:36;2.67;;;0.70;;
66702;SDS011;60933;46.398;-63.798;2023-05-02T03:50:02;2.45;;;0.82;;
66702;SDS011;60933;46.398;-63.798;2023-05-02T03:52:29;1.27;;;0.80;;
66702;SDS011;60933;46.398;-63.798;2023-05-02T03:54:55;3.80;;;1.52;;
66702;SDS011;60933;46.398;-63.798;2023-05-02T03:57:21;2.30;;;0.82;;
66702;SDS011;60933;46.398;-63.798;2023-05-02T03:59:48;3.88;;;0.75;;
66702;SDS011;60933;46.398;-63.798;2023-05-02T04:02:14;1.95;;;0.45;;
66702;SDS011;60933;46.398;-63.798;2023-05-02T04:04:40;1.88;;;0.52;;
66702;SDS011;60933;46.398;-63.798;2023-05-02T04:07:07;1.88;;;0.73;;
66702;SDS011;60933;46.398;-63.798;2023-05-02T04:09:35;1.88;;;1.17;;
66702;SDS011;60933;46.398;-63.798;2023-05-02T04:12:01;2.67;;;0.68;;
66702;SDS011;60933;46.398;-63.798;2023-05-02T04:14:28;2.40;;;0.80;;
66702;SDS011;60933;46.398;-63.798;2023-05-02T04:16:54;1.80;;;0.73;;
66702;SDS011;60933;46.398;-63.798;2023-05-02T04:19:20;3.28;;;0.30;;
66702;SDS011;60933;46.398;-63.798;2023-05-02T04:21:46;1.92;;;0.82;;
66702;SDS011;60933;46.398;-63.798;2023-05-02T04:24:12;2.00;;;0.45;;
66702;SDS011;60933;46.398;-63.798;2023-05-02T04:30:00;1.55;;;0.60;;
66702;SDS011;60933;46.398;-63.798;2023-05-02T04:32:26;1.33;;;0.68;;
66702;SDS011;60933;46.398;-63.798;2023-05-02T04:34:53;1.98;;;0.73;;
66702;SDS011;60933;46.398;-63.798;2023-05-02T04:37:20;2.42;;;0.52;;
66702;SDS011;60933;46.398;-63.798;2023-05-02T04:39:46;2.80;;;1.33;;
66702;SDS011;60933;46.398;-63.798;2023-05-02T04:42:12;2.85;;;0.68;;
66702;SDS011;60933;46.398;-63.798;2023-05-02T04:44:38;3.03;;;0.70;;
66702;SDS011;60933;46.398;-63.798;2023-05-02T04:47:04;1.77;;;0.63;;
66702;SDS011;60933;46.398;-63.798;2023-05-02T04:49:30;1.65;;;0.50;;
66702;SDS011;60933;46.398;-63.798;2023-05-02T04:51:56;4.40;;;1.00;;
66702;SDS011;60933;46.398;-63.798;2023-05-02T04:54:23;4.43;;;0.85;;
66702;SDS011;60933;46.398;-63.798;2023-05-02T04:56:49;5.50;;;0.75;;
66702;SDS011;60933;46.398;-63.798;2023-05-02T04:59:15;3.92;;;0.80;;
66702;SDS011;60933;46.398;-63.798;2023-05-02T05:01:41;3.88;;;0.90;;
66702;SDS011;60933;46.398;-63.798;2023-05-02T05:04:09;1.55;;;0.70;;
66702;SDS011;60933;46.398;-63.798;2023-05-02T05:06:35;2.72;;;0.88;;
66702;SDS011;60933;46.398;-63.798;2023-05-02T05:09:01;2.38;;;0.82;;
66702;SDS011;60933;46.398;-63.798;2023-05-02T05:11:28;2.45;;;1.10;;
66702;SDS011;60933;46.398;-63.798;2023-05-02T05:13:54;1.67;;;0.73;;
66702;SDS011;60933;46.398;-63.798;2023-05-02T05:16:21;1.42;;;0.50;;
66702;SDS011;60933;46.398;-63.798;2023-05-02T05:18:47;2.00;;;1.02;;
66702;SDS011;60933;46.398;-63.798;2023-05-02T05:21:13;1.35;;;0.50;;
66702;SDS011;60933;46.398;-63.798;2023-05-02T05:23:39;2.47;;;0.70;;
66702;SDS011;60933;46.398;-63.798;2023-05-02T05:26:15;2.63;;;0.73;;
66702;SDS011;60933;46.398;-63.798;2023-05-02T05:31:09;1.85;;;0.50;;
66702;SDS011;60933;46.398;-63.798;2023-05-02T05:33:36;1.65;;;0.45;;
66702;SDS011;60933;46.398;-63.798;2023-05-02T05:36:09;3.00;;;0.68;;
66702;SDS011;60933;46.398;-63.798;2023-05-02T05:38:37;1.88;;;0.60;;
66702;SDS011;60933;46.398;-63.798;2023-05-02T05:41:03;1.02;;;0.65;;
66702;SDS011;60933;46.398;-63.798;2023-05-02T05:43:29;1.60;;;0.50;;
66702;SDS011;60933;46.398;-63.798;2023-05-02T05:45:56;1.33;;;0.50;;
66702;SDS011;60933;46.398;-63.798;2023-05-02T05:48:22;2.42;;;0.50;;
66702;SDS011;60933;46.398;-63.798;2023-05-02T05:50:48;2.45;;;0.70;;
66702;SDS011;60933;46.398;-63.798;2023-05-02T05:53:16;2.92;;;0.60;;
66702;SDS011;60933;46.398;-63.798;2023-05-02T05:55:46;1.42;;;1.10;;
66702;SDS011;60933;46.398;-63.798;2023-05-02T05:58:12;2.97;;;0.88;;
66702;SDS011;60933;46.398;-63.798;2023-05-02T06:00:39;2.45;;;0.50;;
66702;SDS011;60933;46.398;-63.798;2023-05-02T06:03:06;2.17;;;0.40;;
66702;SDS011;60933;46.398;-63.798;2023-05-02T06:05:32;0.88;;;0.50;;
66702;SDS011;60933;46.398;-63.798;2023-05-02T06:07:58;2.45;;;0.73;;
66702;SDS011;60933;46.398;-63.798;2023-05-02T06:10:25;1.80;;;0.93;;
66702;SDS011;60933;46.398;-63.798;2023-05-02T06:12:51;3.38;;;0.40;;
66702;SDS011;60933;46.398;-63.798;2023-05-02T06:15:17;1.10;;;0.32;;
66702;SDS011;60933;46.398;-63.798;2023-05-02T06:17:43;2.40;;;0.50;;
66702;SDS011;60933;46.398;-63.798;2023-05-02T06:20:09;0.88;;;0.70;;
66702;SDS011;60933;46.398;-63.798;2023-05-02T06:22:36;1.55;;;0.28;;
66702;SDS011;60933;46.398;-63.798;2023-05-02T06:25:03;2.03;;;0.80;;
66702;SDS011;60933;46.398;-63.798;2023-05-02T06:27:30;2.90;;;0.73;;
66702;SDS011;60933;46.398;-63.798;2023-05-02T06:29:56;0.60;;;0.30;;
66702;SDS011;60933;46.398;-63.798;2023-05-02T06:32:22;0.90;;;0.85;;
66702;SDS011;60933;46.398;-63.798;2023-05-02T06:34:49;2.20;;;0.47;;
66702;SDS011;60933;46.398;-63.798;2023-05-02T06:37:15;0.98;;;0.65;;
66702;SDS011;60933;46.398;-63.798;2023-05-02T06:39:41;2.22;;;0.50;;
66702;SDS011;60933;46.398;-63.798;2023-05-02T06:42:07;3.20;;;0.68;;
66702;SDS011;60933;46.398;-63.798;2023-05-02T06:44:33;1.25;;;0.57;;
66702;SDS011;60933;46.398;-63.798;2023-05-02T06:47:00;0.95;;;0.40;;
66702;SDS011;60933;46.398;-63.798;2023-05-02T06:49:26;1.98;;;0.45;;
66702;SDS011;60933;46.398;-63.798;2023-05-02T06:51:52;1.80;;;0.73;;
66702;SDS011;60933;46.398;-63.798;2023-05-02T06:54:18;0.70;;;0.45;;
66702;SDS011;60933;46.398;-63.798;2023-05-02T06:56:46;3.25;;;0.50;;
66702;SDS011;60933;46.398;-63.798;2023-05-02T06:59:12;2.17;;;0.60;;
66702;SDS011;60933;46.398;-63.798;2023-05-02T07:01:40;2.83;;;1.20;;
66702;SDS011;60933;46.398;-63.798;2023-05-02T07:04:08;1.33;;;0.45;;
66702;SDS011;60933;46.398;-63.798;2023-05-02T07:06:34;2.00;;;0.50;;
66702;SDS011;60933;46.398;-63.798;2023-05-02T07:09:00;0.63;;;0.47;;
66702;SDS011;60933;46.398;-63.798;2023-05-02T07:11:26;1.45;;;0.40;;
66702;SDS011;60933;46.398;-63.798;2023-05-02T07:13:52;1.40;;;0.50;;
66702;SDS011;60933;46.398;-63.798;2023-05-02T07:16:19;0.95;;;0.45;;
66702;SDS011;60933;46.398;-63.798;2023-05-02T07:18:45;0.95;;;0.40;;
66702;SDS011;60933;46.398;-63.798;2023-05-02T07:24:33;1.40;;;0.30;;
66702;SDS011;60933;46.398;-63.798;2023-05-02T07:26:59;0.85;;;0.20;;
66702;SDS011;60933;46.398;-63.798;2023-05-02T07:29:25;2.47;;;0.43;;
66702;SDS011;60933;46.398;-63.798;2023-05-02T07:31:51;1.90;;;0.40;;
66702;SDS011;60933;46.398;-63.798;2023-05-02T07:34:18;0.90;;;0.77;;
66702;SDS011;60933;46.398;-63.798;2023-05-02T07:36:44;1.98;;;0.60;;
66702;SDS011;60933;46.398;-63.798;2023-05-02T07:39:10;2.05;;;0.57;;
66702;SDS011;60933;46.398;-63.798;2023-05-02T07:41:36;0.52;;;0.38;;
66702;SDS011;60933;46.398;-63.798;2023-05-02T07:44:02;2.90;;;0.90;;
66702;SDS011;60933;46.398;-63.798;2023-05-02T07:46:28;3.20;;;0.55;;
66702;SDS011;60933;46.398;-63.798;2023-05-02T07:48:55;1.52;;;0.47;;
66702;SDS011;60933;46.398;-63.798;2023-05-02T07:51:21;1.02;;;0.57;;
66702;SDS011;60933;46.398;-63.798;2023-05-02T07:53:50;2.22;;;1.02;;
66702;SDS011;60933;46.398;-63.798;2023-05-02T07:56:23;1.52;;;0.50;;
66702;SDS011;60933;46.398;-63.798;2023-05-02T07:58:49;0.68;;;0.43;;
66702;SDS011;60933;46.398;-63.798;2023-05-02T08:01:18;2.10;;;0.57;;
66702;SDS011;60933;46.398;-63.798;2023-05-02T08:03:44;3.03;;;0.70;;
66702;SDS011;60933;46.398;-63.798;2023-05-02T08:06:11;1.02;;;0.50;;
66702;SDS011;60933;46.398;-63.798;2023-05-02T08:08:38;1.05;;;0.95;;
66702;SDS011;60933;46.398;-63.798;2023-05-02T08:11:04;0.80;;;0.50;;
66702;SDS011;60933;46.398;-63.798;2023-05-02T08:13:31;0.50;;;0.22;;
66702;SDS011;60933;46.398;-63.798;2023-05-02T08:15:57;2.30;;;0.40;;
66702;SDS011;60933;46.398;-63.798;2023-05-02T08:18:23;1.40;;;0.50;;
66702;SDS011;60933;46.398;-63.798;2023-05-02T08:20:50;0.90;;;0.45;;
66702;SDS011;60933;46.398;-63.798;2023-05-02T08:23:16;1.92;;;0.47;;
66702;SDS011;60933;46.398;-63.798;2023-05-02T08:25:43;2.25;;;0.52;;
66702;SDS011;60933;46.398;-63.798;2023-05-02T08:28:09;3.70;;;0.90;;
66702;SDS011;60933;46.398;-63.798;2023-05-02T08:30:35;4.63;;;0.60;;
66702;SDS011;60933;46.398;-63.798;2023-05-02T08:33:01;1.35;;;0.50;;
66702;SDS011;60933;46.398;-63.798;2023-05-02T08:35:28;1.02;;;0.40;;
66702;SDS011;60933;46.398;-63.798;2023-05-02T08:37:57;1.00;;;0.90;;
66702;SDS011;60933;46.398;-63.798;2023-05-02T08:40:23;0.65;;;0.50;;
66702;SDS011;60933;46.398;-63.798;2023-05-02T08:42:50;1.05;;;0.30;;
66702;SDS011;60933;46.398;-63.798;2023-05-02T08:45:17;0.43;;;0.30;;
66702;SDS011;60933;46.398;-63.798;2023-05-02T08:47:44;2.45;;;0.90;;
66702;SDS011;60933;46.398;-63.798;2023-05-02T08:50:11;1.10;;;0.65;;
66702;SDS011;60933;46.398;-63.798;2023-05-02T08:52:37;2.17;;;0.75;;
66702;SDS011;60933;46.398;-63.798;2023-05-02T08:55:05;2.58;;;0.90;;
66702;SDS011;60933;46.398;-63.798;2023-05-02T08:57:32;1.80;;;0.80;;
66702;SDS011;60933;46.398;-63.798;2023-05-02T08:59:58;2.15;;;0.63;;
66702;SDS011;60933;46.398;-63.798;2023-05-02T09:05:18;2.47;;;1.48;;
66702;SDS011;60933;46.398;-63.798;2023-05-02T09:07:49;1.50;;;0.75;;
66702;SDS011;60933;46.398;-63.798;2023-05-02T09:10:16;0.90;;;0.55;;
66702;SDS011;60933;46.398;-63.798;2023-05-02T09:12:42;1.25;;;0.85;;
66702;SDS011;60933;46.398;-63.798;2023-05-02T09:15:15;2.10;;;0.90;;
66702;SDS011;60933;46.398;-63.798;2023-05-02T09:17:45;3.28;;;1.02;;
66702;SDS011;60933;46.398;-63.798;2023-05-02T09:20:12;2.63;;;0.65;;
66702;SDS011;60933;46.398;-63.798;2023-05-02T09:22:50;1.65;;;0.63;;
66702;SDS011;60933;46.398;-63.798;2023-05-02T09:25:20;2.97;;;0.60;;
66702;SDS011;60933;46.398;-63.798;2023-05-02T09:30:19;1.52;;;0.40;;
66702;SDS011;60933;46.398;-63.798;2023-05-02T09:32:49;1.52;;;0.40;;
66702;SDS011;60933;46.398;-63.798;2023-05-02T09:35:16;1.70;;;0.40;;
66702;SDS011;60933;46.398;-63.798;2023-05-02T09:37:49;1.10;;;0.20;;
66702;SDS011;60933;46.398;-63.798;2023-05-02T09:40:16;0.75;;;0.30;;
66702;SDS011;60933;46.398;-63.798;2023-05-02T09:42:42;1.63;;;0.30;;
66702;SDS011;60933;46.398;-63.798;2023-05-02T09:45:16;0.93;;;0.20;;
66702;SDS011;60933;46.398;-63.798;2023-05-02T09:47:52;2.53;;;0.40;;
66702;SDS011;60933;46.398;-63.798;2023-05-02T09:50:39;2.58;;;0.30;;
66702;SDS011;60933;46.398;-63.798;2023-05-02T09:53:06;1.10;;;0.30;;
66702;SDS011;60933;46.398;-63.798;2023-05-02T09:55:36;1.92;;;0.90;;
66702;SDS011;60933;46.398;-63.798;2023-05-02T09:58:02;0.73;;;0.30;;
66702;SDS011;60933;46.398;-63.798;2023-05-02T10:00:39;1.92;;;0.47;;
66702;SDS011;60933;46.398;-63.798;2023-05-02T10:03:07;0.60;;;0.40;;
66702;SDS011;60933;46.398;-63.798;2023-05-02T10:05:38;0.93;;;0.30;;
66702;SDS011;60933;46.398;-63.798;2023-05-02T10:08:05;1.98;;;0.40;;
66702;SDS011;60933;46.398;-63.798;2023-05-02T10:10:36;1.00;;;0.32;;
66702;SDS011;60933;46.398;-63.798;2023-05-02T10:13:07;1.20;;;0.35;;
66702;SDS011;60933;46.398;-63.798;2023-05-02T10:15:35;0.93;;;0.40;;
66702;SDS011;60933;46.398;-63.798;2023-05-02T10:18:08;1.33;;;0.50;;
66702;SDS011;60933;46.398;-63.798;2023-05-02T10:23:09;0.82;;;0.45;;
66702;SDS011;60933;46.398;-63.798;2023-05-02T10:25:35;1.83;;;0.40;;
66702;SDS011;60933;46.398;-63.798;2023-05-02T10:28:02;2.00;;;0.93;;
66702;SDS011;60933;46.398;-63.798;2023-05-02T10:30:28;0.70;;;0.30;;
66702;SDS011;60933;46.398;-63.798;2023-05-02T10:32:55;1.33;;;0.30;;
66702;SDS011;60933;46.398;-63.798;2023-05-02T10:35:24;1.42;;;0.30;;
66702;SDS011;60933;46.398;-63.798;2023-05-02T10:37:51;1.35;;;0.80;;
66702;SDS011;60933;46.398;-63.798;2023-05-02T10:40:18;1.73;;;0.68;;
66702;SDS011;60933;46.398;-63.798;2023-05-02T10:42:45;1.10;;;0.40;;
66702;SDS011;60933;46.398;-63.798;2023-05-02T10:45:36;0.93;;;0.45;;
66702;SDS011;60933;46.398;-63.798;2023-05-02T10:48:15;1.30;;;0.50;;
66702;SDS011;60933;46.398;-63.798;2023-05-02T10:50:45;2.95;;;0.60;;
66702;SDS011;60933;46.398;-63.798;2023-05-02T10:58:38;2.15;;;0.43;;
66702;SDS011;60933;46.398;-63.798;2023-05-02T11:03:57;2.42;;;0.57;;
66702;SDS011;60933;46.398;-63.798;2023-05-02T11:06:30;1.40;;;0.50;;
66702;SDS011;60933;46.398;-63.798;2023-05-02T11:11:43;2.03;;;0.60;;
66702;SDS011;60933;46.398;-63.798;2023-05-02T11:14:10;2.45;;;0.60;;
66702;SDS011;60933;46.398;-63.798;2023-05-02T11:19:26;2.53;;;0.70;;
66702;SDS011;60933;46.398;-63.798;2023-05-02T11:22:38;1.95;;;0.70;;
66702;SDS011;60933;46.398;-63.798;2023-05-02T11:24:45;3.63;;;1.63;;
66702;SDS011;60933;46.398;-63.798;2023-05-02T11:29:54;1.98;;;0.75;;
66702;SDS011;60933;46.398;-63.798;2023-05-02T11:35:18;1.85;;;1.00;;
66702;SDS011;60933;46.398;-63.798;2023-05-02T11:37:58;2.25;;;0.80;;
66702;SDS011;60933;46.398;-63.798;2023-05-02T11:40:29;1.65;;;0.63;;
66702;SDS011;60933;46.398;-63.798;2023-05-02T11:42:57;1.48;;;0.52;;
66702;SDS011;60933;46.398;-63.798;2023-05-02T11:45:34;2.13;;;0.60;;
66702;SDS011;60933;46.398;-63.798;2023-05-02T11:48:03;1.15;;;0.52;;
66702;SDS011;60933;46.398;-63.798;2023-05-02T11:50:31;0.93;;;0.63;;
66702;SDS011;60933;46.398;-63.798;2023-05-02T11:53:11;2.42;;;0.52;;
66702;SDS011;60933;46.398;-63.798;2023-05-02T11:55:48;3.20;;;0.75;;
66702;SDS011;60933;46.398;-63.798;2023-05-02T11:58:16;1.63;;;0.50;;
66702;SDS011;60933;46.398;-63.798;2023-05-02T12:00:44;3.00;;;0.68;;
66702;SDS011;60933;46.398;-63.798;2023-05-02T12:03:45;1.73;;;0.50;;
66702;SDS011;60933;46.398;-63.798;2023-05-02T12:06:09;1.23;;;0.52;;
66702;SDS011;60933;46.398;-63.798;2023-05-02T12:08:41;1.58;;;0.60;;
66702;SDS011;60933;46.398;-63.798;2023-05-02T12:11:08;1.10;;;0.50;;
66702;SDS011;60933;46.398;-63.798;2023-05-02T12:13:43;2.50;;;0.63;;
66702;SDS011;60933;46.398;-63.798;2023-05-02T12:16:10;2.38;;;0.90;;
66702;SDS011;60933;46.398;-63.798;2023-05-02T12:18:37;2.17;;;0.85;;
66702;SDS011;60933;46.398;-63.798;2023-05-02T12:21:03;3.78;;;1.42;;
66702;SDS011;60933;46.398;-63.798;2023-05-02T12:23:30;3.35;;;1.55;;
66702;SDS011;60933;46.398;-63.798;2023-05-02T12:25:57;2.83;;;1.23;;
66702;SDS011;60933;46.398;-63.798;2023-05-02T12:28:23;3.35;;;1.17;;
66702;SDS011;60933;46.398;-63.798;2023-05-02T12:30:49;5.30;;;1.55;;
66702;SDS011;60933;46.398;-63.798;2023-05-02T12:33:16;4.43;;;1.27;;
66702;SDS011;60933;46.398;-63.798;2023-05-02T12:35:43;3.28;;;1.20;;
66702;SDS011;60933;46.398;-63.798;2023-05-02T12:38:18;3.40;;;1.42;;
66702;SDS011;60933;46.398;-63.798;2023-05-02T12:40:53;1.75;;;0.85;;
66702;SDS011;60933;46.398;-63.798;2023-05-02T12:43:22;4.72;;;1.45;;
66702;SDS011;60933;46.398;-63.798;2023-05-02T12:45:49;4.05;;;1.58;;
66702;SDS011;60933;46.398;-63.798;2023-05-02T12:48:25;4.45;;;1.60;;
66702;SDS011;60933;46.398;-63.798;2023-05-02T12:50:52;4.70;;;1.65;;
66702;SDS011;60933;46.398;-63.798;2023-05-02T12:56:05;4.50;;;1.73;;
66702;SDS011;60933;46.398;-63.798;2023-05-02T12:58:41;4.28;;;1.35;;
66702;SDS011;60933;46.398;-63.798;2023-05-02T13:01:12;3.40;;;1.52;;
66702;SDS011;60933;46.398;-63.798;2023-05-02T13:03:39;3.85;;;1.55;;
66702;SDS011;60933;46.398;-63.798;2023-05-02T13:06:06;4.45;;;1.75;;
66702;SDS011;60933;46.398;-63.798;2023-05-02T13:08:33;3.40;;;1.27;;
66702;SDS011;60933;46.398;-63.798;2023-05-02T13:11:01;4.55;;;1.30;;
66702;SDS011;60933;46.398;-63.798;2023-05-02T13:13:29;2.75;;;1.17;;
66702;SDS011;60933;46.398;-63.798;2023-05-02T13:15:55;4.70;;;1.85;;
66702;SDS011;60933;46.398;-63.798;2023-05-02T13:18:21;4.68;;;1.65;;
66702;SDS011;60933;46.398;-63.798;2023-05-02T13:20:47;3.63;;;1.40;;
66702;SDS011;60933;46.398;-63.798;2023-05-02T13:23:13;4.22;;;1.63;;
66702;SDS011;60933;46.398;-63.798;2023-05-02T13:25:41;4.22;;;1.75;;
66702;SDS011;60933;46.398;-63.798;2023-05-02T13:28:07;3.95;;;1.45;;
66702;SDS011;60933;46.398;-63.798;2023-05-02T13:30:33;3.47;;;1.55;;
66702;SDS011;60933;46.398;-63.798;2023-05-02T13:32:59;2.67;;;1.45;;
66702;SDS011;60933;46.398;-63.798;2023-05-02T13:35:25;4.20;;;1.35;;
66702;SDS011;60933;46.398;-63.798;2023-05-02T13:37:52;3.40;;;1.80;;
66702;SDS011;60933;46.398;-63.798;2023-05-02T13:40:18;2.72;;;1.73;;
66702;SDS011;60933;46.398;-63.798;2023-05-02T13:42:45;3.33;;;1.70;;
66702;SDS011;60933;46.398;-63.798;2023-05-02T13:45:11;4.35;;;1.60;;
66702;SDS011;60933;46.398;-63.798;2023-05-02T13:47:37;3.90;;;1.50;;
66702;SDS011;60933;46.398;-63.798;2023-05-02T13:50:03;3.38;;;1.55;;
66702;SDS011;60933;46.398;-63.798;2023-05-02T13:52:29;3.75;;;1.63;;
66702;SDS011;60933;46.398;-63.798;2023-05-02T13:54:55;5.53;;;0.90;;
66702;SDS011;60933;46.398;-63.798;2023-05-02T13:57:21;2.40;;;0.70;;
66702;SDS011;60933;46.398;-63.798;2023-05-02T13:59:48;2.22;;;0.70;;
66702;SDS011;60933;46.398;-63.798;2023-05-02T14:02:14;1.05;;;0.40;;
66702;SDS011;60933;46.398;-63.798;2023-05-02T14:04:40;1.40;;;0.45;;
66702;SDS011;60933;46.398;-63.798;2023-05-02T14:07:06;2.67;;;1.00;;
66702;SDS011;60933;46.398;-63.798;2023-05-02T14:09:32;1.60;;;0.73;;
66702;SDS011;60933;46.398;-63.798;2023-05-02T14:11:58;2.40;;;0.90;;
66702;SDS011;60933;46.398;-63.798;2023-05-02T14:14:24;2.47;;;0.68;;
66702;SDS011;60933;46.398;-63.798;2023-05-02T14:16:50;2.78;;;0.80;;
66702;SDS011;60933;46.398;-63.798;2023-05-02T14:19:16;1.90;;;0.70;;
66702;SDS011;60933;46.398;-63.798;2023-05-02T14:21:43;1.92;;;0.63;;
66702;SDS011;60933;46.398;-63.798;2023-05-02T14:24:09;2.28;;;0.50;;
66702;SDS011;60933;46.398;-63.798;2023-05-02T14:26:36;1.58;;;0.77;;
66702;SDS011;60933;46.398;-63.798;2023-05-02T14:29:02;2.80;;;0.65;;
66702;SDS011;60933;46.398;-63.798;2023-05-02T14:31:29;1.25;;;0.82;;
66702;SDS011;60933;46.398;-63.798;2023-05-02T14:33:55;2.78;;;0.80;;
66702;SDS011;60933;46.398;-63.798;2023-05-02T14:36:21;2.25;;;0.75;;
66702;SDS011;60933;46.398;-63.798;2023-05-02T14:38:47;1.20;;;0.60;;
66702;SDS011;60933;46.398;-63.798;2023-05-02T14:41:13;1.48;;;0.90;;
66702;SDS011;60933;46.398;-63.798;2023-05-02T14:43:39;1.20;;;0.60;;
66702;SDS011;60933;46.398;-63.798;2023-05-02T14:46:05;4.13;;;0.80;;
66702;SDS011;60933;46.398;-63.798;2023-05-02T14:48:31;2.67;;;0.65;;
66702;SDS011;60933;46.398;-63.798;2023-05-02T14:50:57;1.77;;;0.75;;
66702;SDS011;60933;46.398;-63.798;2023-05-02T14:53:27;1.40;;;0.70;;
66702;SDS011;60933;46.398;-63.798;2023-05-02T14:55:53;2.42;;;1.00;;
66702;SDS011;60933;46.398;-63.798;2023-05-02T14:58:19;1.65;;;0.82;;
66702;SDS011;60933;46.398;-63.798;2023-05-02T15:00:45;2.38;;;0.85;;
66702;SDS011;60933;46.398;-63.798;2023-05-02T15:03:12;2.08;;;0.95;;
66702;SDS011;60933;46.398;-63.798;2023-05-02T15:05:38;1.27;;;0.60;;
66702;SDS011;60933;46.398;-63.798;2023-05-02T15:08:04;1.80;;;0.70;;
66702;SDS011;60933;46.398;-63.798;2023-05-02T15:10:34;1.98;;;0.70;;
66702;SDS011;60933;46.398;-63.798;2023-05-02T15:13:01;1.65;;;0.60;;
66702;SDS011;60933;46.398;-63.798;2023-05-02T15:15:28;1.00;;;0.60;;
66702;SDS011;60933;46.398;-63.798;2023-05-02T15:17:55;1.38;;;0.60;;
66702;SDS011;60933;46.398;-63.798;2023-05-02T15:20:21;3.38;;;1.00;;
66702;SDS011;60933;46.398;-63.798;2023-05-02T15:22:47;2.38;;;1.42;;
66702;SDS011;60933;46.398;-63.798;2023-05-02T15:25:13;1.35;;;0.98;;
66702;SDS011;60933;46.398;-63.798;2023-05-02T15:27:40;0.80;;;0.75;;
66702;SDS011;60933;46.398;-63.798;2023-05-02T15:30:07;0.95;;;0.73;;
66702;SDS011;60933;46.398;-63.798;2023-05-02T15:32:33;1.25;;;0.80;;
66702;SDS011;60933;46.398;-63.798;2023-05-02T15:34:59;0.95;;;0.80;;